Terminal Aerodrome Forecast
Issued by NWS Portland, ME

Home | Current Version | Previous Version | Text Only | Print | Product List | Glossary On
Versions: 1 2 3 4 5 6 7 8 9 10 11 12 13 14 15 16 17 18 19 20 21
239
FTUS41 KGYX 230520
TAFCON
TAF
KCON 230520Z 2306/2406 VRB03KT P6SM BKN060 OVC100
     FM231700 19010KT P6SM SCT040 BKN100 PROB30 2319/2323 4SM -TSRA
      OVC040CB
     FM240300 19006KT 4SM BR OVC010=

USA.gov is the U.S. government's official web portal to all federal, state and local government web resources and services.